Accueil
METAR-TAF:

METAR-TAF

Aéroports :

Chièvres, Belgique

Base aérienne de Chièvres

latitude: 50-34N, longitude: 003-50E, altitude: 60 m

Observation

Le bulletin a été fait il y a 23 minutes, à 01:25 UTC
Vent 8 kt de ouest/sud-ouest
Température 14°C
Humidité 82%
Pression 1018 hPa
Visibilité 10 km ou plus

METAR: EBCV 240125Z AUTO 24008KT 9999 NCD 14/11 Q1018 BLU

Heure: 03:48 (01:48 UTC)

Prévision

Le bulletin a été fait il y a 10 heures et 7 minutes, à 15:41 UTC
Prévision valable du 23 à 19 UTC au 24 à 07 UTC
Vent 13 kt de ouest/sud-ouest
Visibilité 10 km ou plus
Quelques nuages à une hauteur de 3500 ft
Evoluant progressivement
du 23 à 21 UTC au 23 à 23 UTC
Vent 9 kt de ouest/sud-ouest
Evoluant progressivement
du 24 à 03 UTC au 24 à 05 UTC
Nuages épars à une hauteur de 1500 ft
Nuages fragmentés à une hauteur de 2000 ft

TAF: EBCV 231541Z 2319/2407 24013KT 9999 FEW035 BECMG 2321/2323 24009KT BECMG 2403/2405 SCT015 BKN020 BY EBWM

Observations et prévisions météorologiques de plus de 4000 aéroports (messages METAR et TAF).

Les stations disponibles sont représentées par des disques jaunes et rouges sur la carte.

Passer la souris dessus pour voir le nom de la station.

Cliquer dessus pour voir les observations et prévisions météorologiques.

Pour changer de carte: cliquez sur les boutons verts avec une croix noire pour zoomer, sur le bouton vert avec un tiret pour effectuer un zoom arrière, ou sur les flèches vertes pour les cartes adjacentes.


METAR-TAF: